Time;durP1;ratioP1;P1;durP2;ratioP2;P2;SDS_P1;SDS_P2;PMS_P1;PMS_P2;Temp;Humidity;BMP_temperature;BMP_pressure;BME280_temperature;BME280_humidity;BME280_pressure;Samples;Min_cycle;Max_cycle;Signal;HPM_P1;HPM_P2
2021/10/03 00:00:15;;;;;;;0.90;0.63;;;;;;;20.40;61.92;99495.97;4957578;28;123722;-66
2021/10/03 00:02:46;;;;;;;1.42;0.82;;;;;;;20.43;61.89;99484.88;4971694;28;114613;-67
2021/10/03 00:05:14;;;;;;;0.90;0.65;;;;;;;20.47;61.83;99489.94;4969795;28;114266;-67
2021/10/03 00:07:57;;;;;;;2.22;0.70;;;;;;;20.46;61.86;99485.56;4968288;28;124104;-67
2021/10/03 00:10:26;;;;;;;0.93;0.60;;;;;;;20.50;61.72;99489.59;4949692;28;123953;-67
2021/10/03 00:12:55;;;;;;;1.13;0.80;;;;;;;20.52;61.78;99474.16;4963887;28;114118;-67
2021/10/03 00:15:23;;;;;;;0.75;0.57;;;;;;;20.54;61.72;99480.19;4958922;28;113666;-67
2021/10/03 00:17:50;;;;;;;2.03;0.60;;;;;;;20.54;61.63;99483.72;4968401;28;124525;-67
2021/10/03 00:20:18;;;;;;;0.98;0.60;;;;;;;20.58;61.60;99486.91;4968218;28;123972;-66
2021/10/03 00:22:46;;;;;;;1.42;0.75;;;;;;;20.59;61.69;99488.63;4960405;28;114519;-67
2021/10/03 00:25:15;;;;;;;0.80;0.60;;;;;;;20.60;61.62;99490.31;4971806;28;114307;-67
2021/10/03 00:27:44;;;;;;;1.10;0.68;;;;;;;20.60;61.71;99490.31;4973449;28;124185;-67
2021/10/03 00:30:14;;;;;;;0.70;0.50;;;;;;;20.62;61.72;99490.97;4973078;28;123760;-67
2021/10/03 00:32:41;;;;;;;1.08;0.68;;;;;;;20.65;61.60;99493.34;4972609;28;114423;-67
2021/10/03 00:35:11;;;;;;;0.90;0.50;;;;;;;20.65;61.62;99498.72;4972407;28;113949;-67
2021/10/03 00:37:38;;;;;;;1.27;0.55;;;;;;;20.66;61.65;99496.88;4969439;28;123816;-67
2021/10/03 00:40:07;;;;;;;1.70;0.60;;;;;;;20.66;61.65;99489.63;4969648;28;123964;-67
2021/10/03 00:42:35;;;;;;;0.85;0.60;;;;;;;20.67;61.52;99502.09;4969542;28;115665;-67
2021/10/03 00:45:06;;;;;;;1.50;0.70;;;;;;;20.67;61.63;99496.72;4964410;28;115212;-67
2021/10/03 00:47:33;;;;;;;0.70;0.52;;;;;;;20.69;61.51;99494.69;4954785;28;123952;-67
2021/10/03 00:50:00;;;;;;;1.52;0.47;;;;;;;20.70;61.49;99491.00;4960427;28;123940;-67
2021/10/03 00:52:28;;;;;;;0.73;0.52;;;;;;;20.72;61.60;99494.34;4974674;28;113555;-67
2021/10/03 00:54:56;;;;;;;1.42;0.70;;;;;;;20.75;61.48;99488.63;4973021;28;113769;-67
2021/10/03 00:57:23;;;;;;;0.65;0.40;;;;;;;20.77;61.43;99491.97;4972056;28;124001;-67
2021/10/03 00:59:50;;;;;;;0.80;0.50;;;;;;;20.79;61.52;99483.75;4959970;28;123716;-67
2021/10/03 01:02:17;;;;;;;0.73;0.50;;;;;;;20.79;61.43;99484.63;4974783;28;114607;-67
2021/10/03 01:04:45;;;;;;;2.70;0.70;;;;;;;20.79;61.57;99479.22;4971465;28;114009;-67
2021/10/03 01:07:12;;;;;;;1.65;0.60;;;;;;;20.79;61.59;99489.13;4973847;28;124026;-67
2021/10/03 01:09:39;;;;;;;1.63;0.60;;;;;;;20.76;61.50;99490.31;4955749;28;122635;-67
2021/10/03 01:12:07;;;;;;;0.93;0.65;;;;;;;20.76;61.69;99484.94;4973781;28;114235;-67
2021/10/03 01:14:34;;;;;;;1.73;0.60;;;;;;;20.75;61.72;99480.56;4974019;28;113866;-67
2021/10/03 01:17:01;;;;;;;1.48;0.60;;;;;;;20.72;61.69;99478.22;4966304;28;124758;-67
2021/10/03 01:19:28;;;;;;;2.80;0.70;;;;;;;20.70;61.90;99491.00;4965759;28;124489;-67
2021/10/03 01:21:55;;;;;;;1.58;0.88;;;;;;;20.69;61.93;99478.53;4965303;28;114153;-67
2021/10/03 01:24:23;;;;;;;1.10;0.60;;;;;;;20.66;61.85;99489.63;4964599;28;113981;-67
2021/10/03 01:26:50;;;;;;;1.00;0.60;;;;;;;20.64;62.08;99483.56;4972985;28;124018;-66
2021/10/03 01:29:17;;;;;;;0.90;0.60;;;;;;;20.63;62.22;99489.97;4973335;28;123918;-66
2021/10/03 01:31:44;;;;;;;0.90;0.60;;;;;;;20.60;62.25;99495.69;4970671;28;115516;-66
2021/10/03 01:34:11;;;;;;;0.90;0.60;;;;;;;20.58;62.30;99476.16;4963568;28;114874;-66
2021/10/03 01:36:38;;;;;;;1.83;0.70;;;;;;;20.56;62.32;99476.31;4965366;28;124014;-66
2021/10/03 01:39:06;;;;;;;1.10;0.60;;;;;;;20.54;62.56;99482.88;4972124;28;123968;-66
2021/10/03 01:41:33;;;;;;;0.90;0.60;;;;;;;20.55;62.56;99476.47;4971079;28;114496;-66
2021/10/03 01:44:00;;;;;;;1.25;0.60;;;;;;;20.54;62.58;99474.81;4943925;28;114069;-67
2021/10/03 01:46:27;;;;;;;0.60;0.50;;;;;;;20.54;62.54;99469.44;4960616;28;123195;-67
2021/10/03 01:48:55;;;;;;;1.00;0.50;;;;;;;20.55;62.66;99460.34;4971642;28;124734;-67
2021/10/03 01:51:22;;;;;;;2.53;0.60;;;;;;;20.54;62.76;99464.88;4959220;28;114102;-67
2021/10/03 01:53:53;;;;;;;1.08;0.65;;;;;;;20.54;62.50;99466.75;4973362;28;114323;-67
2021/10/03 01:56:22;;;;;;;0.98;0.60;;;;;;;20.54;62.55;99461.38;4965372;28;124762;-67
2021/10/03 01:58:56;;;;;;;0.90;0.60;;;;;;;20.52;62.88;99449.94;4969277;28;124005;-67
2021/10/03 02:01:34;;;;;;;1.10;0.50;;;;;;;20.52;62.82;99449.94;4972115;28;114797;-66
2021/10/03 02:04:06;;;;;;;2.25;0.60;;;;;;;20.51;62.83;99453.63;4972022;28;114441;-67
2021/10/03 02:06:41;;;;;;;2.00;0.70;;;;;;;20.50;62.96;99451.94;4972250;28;124930;-67
2021/10/03 02:09:10;;;;;;;0.93;0.60;;;;;;;20.50;62.90;99436.66;4972497;28;123720;-67
2021/10/03 02:11:41;;;;;;;1.20;0.70;;;;;;;20.51;62.98;99442.84;4970543;28;114512;-67
2021/10/03 02:14:10;;;;;;;1.10;0.60;;;;;;;20.51;63.06;99440.16;4971506;28;113978;-67
2021/10/03 02:16:38;;;;;;;1.25;0.70;;;;;;;20.50;62.93;99451.94;4972233;28;124409;-67
2021/10/03 02:19:06;;;;;;;0.55;0.50;;;;;;;20.50;63.01;99441.19;4969784;28;123943;-67
2021/10/03 02:21:34;;;;;;;1.10;0.60;;;;;;;20.52;62.98;99428.41;4970067;28;115605;-67
2021/10/03 02:24:02;;;;;;;1.90;0.63;;;;;;;20.52;63.15;99423.03;4939882;28;114010;-67
2021/10/03 02:26:29;;;;;;;1.50;0.75;;;;;;;20.51;63.09;99426.72;4972041;28;124737;-67
2021/10/03 02:28:57;;;;;;;0.90;0.60;;;;;;;20.52;63.04;99428.41;4969380;28;124590;-67
2021/10/03 02:31:24;;;;;;;0.70;0.50;;;;;;;20.51;63.21;99415.97;4970684;28;114154;-67
2021/10/03 02:33:52;;;;;;;1.58;0.65;;;;;;;20.51;63.16;99413.28;4970172;28;114345;-68
2021/10/03 02:36:22;;;;;;;1.00;0.70;;;;;;;20.50;63.18;99406.22;4960262;28;124128;-67
2021/10/03 02:38:51;;;;;;;1.40;0.70;;;;;;;20.49;63.23;99397.28;4965074;28;124166;-67
2021/10/03 02:41:20;;;;;;;1.00;0.70;;;;;;;20.51;63.17;99402.50;4963626;28;114270;-68
2021/10/03 02:43:54;;;;;;;1.67;0.60;;;;;;;20.50;63.30;99403.53;4972786;28;113986;-67
2021/10/03 02:46:23;;;;;;;1.43;0.60;;;;;;;20.49;63.17;99402.69;4957044;28;124808;-67
2021/10/03 02:48:51;;;;;;;2.22;0.60;;;;;;;20.50;63.30;99408.91;4956073;28;124000;-68
2021/10/03 02:51:21;;;;;;;1.65;0.50;;;;;;;20.51;63.31;99405.19;4971227;28;114882;-68
2021/10/03 02:53:49;;;;;;;0.65;0.52;;;;;;;20.53;63.41;99392.41;4972083;28;113694;-67
2021/10/03 02:56:19;;;;;;;1.23;0.70;;;;;;;20.53;63.40;99376.28;4957418;28;124183;-67
2021/10/03 02:58:46;;;;;;;1.98;0.75;;;;;;;20.54;63.36;99388.75;4960557;28;124314;-67
2021/10/03 03:01:14;;;;;;;1.27;0.50;;;;;;;20.54;63.17;99383.34;4970107;28;114075;-67
2021/10/03 03:03:42;;;;;;;1.30;0.60;;;;;;;20.54;63.40;99386.03;4970534;28;113566;-67
2021/10/03 03:06:10;;;;;;;1.95;0.70;;;;;;;20.55;63.29;99379.63;4970632;28;124395;-67
2021/10/03 03:08:37;;;;;;;1.58;0.60;;;;;;;20.56;63.25;99370.56;4970945;28;124099;-67
2021/10/03 03:11:05;;;;;;;1.08;0.60;;;;;;;20.56;63.34;99381.34;4972093;28;114741;-67
2021/10/03 03:13:32;;;;;;;1.00;0.60;;;;;;;20.58;63.31;99355.09;4970067;28;114784;-67
2021/10/03 03:16:00;;;;;;;1.30;0.70;;;;;;;20.58;63.44;99373.94;4970324;28;124412;-67
2021/10/03 03:18:27;;;;;;;1.33;0.88;;;;;;;20.59;63.35;99370.25;4968908;28;124161;-68
2021/10/03 03:20:54;;;;;;;1.45;0.75;;;;;;;20.60;63.21;99393.47;4971327;28;114389;-67
2021/10/03 03:23:21;;;;;;;1.40;0.63;;;;;;;20.59;63.30;99359.50;4971341;28;114406;-67
2021/10/03 03:25:48;;;;;;;1.50;0.70;;;;;;;20.62;63.27;99375.31;4972101;28;124285;-67
2021/10/03 03:28:15;;;;;;;1.83;0.93;;;;;;;20.65;63.19;99385.72;4968845;28;124233;-67
2021/10/03 03:30:43;;;;;;;1.60;0.85;;;;;;;20.68;63.14;99374.63;4969765;28;114508;-67
2021/10/03 03:33:10;;;;;;;2.42;1.00;;;;;;;20.69;63.21;99372.78;4970248;28;113728;-67
2021/10/03 03:35:37;;;;;;;2.60;0.95;;;;;;;20.70;63.01;99383.38;4953838;28;123726;-67
2021/10/03 03:38:04;;;;;;;2.08;1.30;;;;;;;20.72;63.03;99375.97;4969017;28;123894;-68
2021/10/03 03:40:31;;;;;;;1.88;1.00;;;;;;;20.74;62.90;99373.94;4971703;28;114631;-67
2021/10/03 03:42:59;;;;;;;1.50;1.00;;;;;;;20.74;62.99;99362.34;4962415;28;114578;-68
2021/10/03 03:45:26;;;;;;;3.13;1.40;;;;;;;20.75;62.84;99369.41;4950354;28;124311;-67
2021/10/03 03:47:53;;;;;;;2.65;1.00;;;;;;;20.74;62.90;99368.56;4969789;28;123852;-67
2021/10/03 03:50:20;;;;;;;1.70;1.10;;;;;;;20.75;62.77;99364.84;4970835;28;115088;-65
2021/10/03 03:52:47;;;;;;;2.22;1.27;;;;;;;20.75;62.86;99370.22;4969517;28;113796;-66
2021/10/03 03:55:15;;;;;;;1.88;1.23;;;;;;;20.75;62.73;99364.84;4969507;28;124061;-66
2021/10/03 03:57:42;;;;;;;2.10;1.30;;;;;;;20.76;62.76;99358.47;4969595;28;123906;-65
2021/10/03 04:00:10;;;;;;;1.85;1.30;;;;;;;20.75;62.60;99381.00;4971491;28;115224;-66
2021/10/03 04:02:38;;;;;;;2.15;1.25;;;;;;;20.75;62.60;99391.75;4974766;28;114981;-66
2021/10/03 04:05:06;;;;;;;2.58;1.30;;;;;;;20.75;62.53;99385.53;4972630;28;124769;-65
2021/10/03 04:07:33;;;;;;;2.15;1.40;;;;;;;20.73;62.65;99388.41;4971763;28;123881;-65
2021/10/03 04:10:01;;;;;;;2.80;1.60;;;;;;;20.73;62.51;99374.94;4972360;28;114242;-65
2021/10/03 04:12:28;;;;;;;2.22;1.42;;;;;;;20.72;62.58;99397.50;4972277;28;113882;-65
2021/10/03 04:14:55;;;;;;;2.53;1.50;;;;;;;20.73;62.47;99388.41;4956985;28;123425;-65
2021/10/03 04:17:23;;;;;;;2.63;1.60;;;;;;;20.72;62.48;99392.13;4972713;28;123753;-65
2021/10/03 04:19:50;;;;;;;2.20;1.50;;;;;;;20.72;62.50;99392.13;4974033;28;114137;-65
2021/10/03 04:22:17;;;;;;;3.75;1.60;;;;;;;20.71;62.48;99390.41;4975110;28;113976;-65
2021/10/03 04:24:44;;;;;;;1.88;1.33;;;;;;;20.71;62.47;99390.41;4972144;28;124301;-65
2021/10/03 04:27:11;;;;;;;4.13;1.58;;;;;;;20.71;62.42;99409.25;4974763;28;123639;-65
2021/10/03 04:29:38;;;;;;;2.30;1.60;;;;;;;20.70;62.37;99394.13;4972988;28;114585;-65
2021/10/03 04:32:06;;;;;;;2.75;1.80;;;;;;;20.70;62.32;99404.03;4954982;28;114237;-65
2021/10/03 04:34:33;;;;;;;3.45;1.80;;;;;;;20.68;62.24;99423.06;4957148;28;123925;-65
2021/10/03 04:37:00;;;;;;;2.92;1.95;;;;;;;20.67;62.30;99413.31;4961076;28;124652;-65
2021/10/03 04:39:28;;;;;;;3.47;2.00;;;;;;;20.67;62.20;99413.31;4972109;28;114542;-65
2021/10/03 04:41:55;;;;;;;3.08;1.85;;;;;;;20.67;62.12;99421.38;4974269;28;114141;-65
2021/10/03 04:44:23;;;;;;;3.63;2.00;;;;;;;20.66;62.22;99419.69;4967183;28;124075;-64
2021/10/03 04:46:50;;;;;;;3.30;2.13;;;;;;;20.62;62.11;99429.09;4954686;28;124530;-65
2021/10/03 04:49:17;;;;;;;3.70;2.00;;;;;;;20.61;62.19;99416.69;4967781;28;115550;-65
2021/10/03 04:51:44;;;;;;;4.20;2.00;;;;;;;20.61;62.17;99427.44;4972055;28;114768;-65
2021/10/03 04:54:11;;;;;;;3.30;2.03;;;;;;;20.59;62.10;99424.03;4972897;28;123957;-65
2021/10/03 04:56:38;;;;;;;3.15;2.40;;;;;;;20.58;62.12;99416.97;4953519;28;123509;-65
2021/10/03 04:59:05;;;;;;;3.65;2.40;;;;;;;20.54;62.13;99415.63;4967342;28;114122;-65
2021/10/03 05:01:32;;;;;;;4.50;2.22;;;;;;;20.54;62.14;99437.16;4951367;28;112798;-65
2021/10/03 05:04:00;;;;;;;3.78;2.28;;;;;;;20.53;62.28;99430.06;4968758;28;123809;-65
2021/10/03 05:06:27;;;;;;;4.55;2.55;;;;;;;20.51;62.29;99415.97;4973815;28;123100;-65
2021/10/03 05:08:54;;;;;;;4.60;2.60;;;;;;;20.49;62.46;99434.94;4971751;28;114595;-65
2021/10/03 05:11:21;;;;;;;3.67;2.40;;;;;;;20.48;62.35;99432.47;4957672;28;114335;-65
2021/10/03 05:13:48;;;;;;;3.72;2.58;;;;;;;20.47;62.23;99425.38;4971172;28;124916;-65
2021/10/03 05:16:15;;;;;;;4.45;2.63;;;;;;;20.45;62.49;99422.84;4972240;28;124092;-65
2021/10/03 05:18:42;;;;;;;4.60;2.22;;;;;;;20.43;62.38;99414.94;4955938;28;113017;-65
2021/10/03 05:21:10;;;;;;;3.30;2.20;;;;;;;20.43;62.55;99414.94;4958720;28;114198;-65
2021/10/03 05:23:37;;;;;;;4.35;2.65;;;;;;;20.40;62.44;99415.31;4971400;28;123938;-65
2021/10/03 05:26:05;;;;;;;3.92;2.30;;;;;;;20.40;62.61;99415.31;4955961;28;123180;-65
2021/10/03 05:28:32;;;;;;;4.53;2.50;;;;;;;20.39;62.58;99413.59;4973166;28;114229;-65
2021/10/03 05:30:59;;;;;;;3.28;2.40;;;;;;;20.38;62.41;99422.69;4974254;28;114893;-65
2021/10/03 05:33:26;;;;;;;4.20;2.63;;;;;;;20.37;62.62;99414.78;4970960;28;124088;-66
2021/10/03 05:35:53;;;;;;;4.85;2.58;;;;;;;20.34;62.55;99421.34;4972360;28;123452;-65
2021/10/03 05:38:20;;;;;;;4.18;2.83;;;;;;;20.33;62.55;99414.28;4971164;28;115512;-66
2021/10/03 05:40:48;;;;;;;5.38;3.00;;;;;;;20.31;62.62;99416.31;4971348;28;115226;-65
2021/10/03 05:43:16;;;;;;;7.40;2.78;;;;;;;20.27;62.72;99420.34;4963943;28;124750;-65
2021/10/03 05:45:43;;;;;;;5.70;2.92;;;;;;;20.23;62.84;99408.25;4969088;28;124511;-65
2021/10/03 05:48:11;;;;;;;5.13;2.95;;;;;;;20.20;62.83;99411.25;4971672;28;114772;-66
2021/10/03 05:50:38;;;;;;;5.07;3.03;;;;;;;20.19;62.79;99423.00;4970470;28;113526;-66
2021/10/03 05:53:07;;;;;;;3.85;2.80;;;;;;;20.16;62.90;99417.97;4970777;28;124567;-66
2021/10/03 05:55:35;;;;;;;6.13;3.30;;;;;;;20.15;62.89;99418.97;4955973;28;123741;-66
2021/10/03 05:58:02;;;;;;;5.72;3.28;;;;;;;20.15;63.12;99427.03;4959350;28;114085;-66
2021/10/03 06:00:29;;;;;;;5.32;3.13;;;;;;;20.14;63.00;99420.00;4959132;28;114304;-66
2021/10/03 06:02:56;;;;;;;5.43;2.80;;;;;;;20.11;63.08;99420.31;4969828;28;124306;-66
2021/10/03 06:05:23;;;;;;;4.30;3.15;;;;;;;20.09;63.03;99416.94;4953847;28;123747;-66
2021/10/03 06:07:50;;;;;;;6.45;3.25;;;;;;;20.07;63.24;99424.34;4969580;28;114113;-66
2021/10/03 06:10:18;;;;;;;4.10;2.97;;;;;;;20.06;62.93;99422.66;4969197;28;113789;-66
2021/10/03 06:12:45;;;;;;;3.63;2.90;;;;;;;20.05;63.12;99420.97;4971734;28;124058;-66
2021/10/03 06:15:12;;;;;;;4.03;2.80;;;;;;;20.03;63.11;99408.53;4970076;28;123882;-66
2021/10/03 06:17:39;;;;;;;5.88;3.35;;;;;;;20.01;63.11;99418.63;4970353;28;114080;-66
2021/10/03 06:20:07;;;;;;;5.72;3.00;;;;;;;20.00;63.23;99403.50;4972211;28;114327;-66
2021/10/03 06:22:35;;;;;;;6.03;3.22;;;;;;;19.98;63.39;99416.25;4971946;28;124122;-66
2021/10/03 06:25:02;;;;;;;4.82;3.00;;;;;;;19.98;63.26;99416.25;4954287;28;123351;-66
2021/10/03 06:27:31;;;;;;;5.55;3.33;;;;;;;19.99;63.46;99412.56;4970458;28;115626;-66
2021/10/03 06:29:58;;;;;;;5.22;3.08;;;;;;;19.98;63.22;99415.41;4970418;28;114760;-67
2021/10/03 06:32:26;;;;;;;4.63;3.30;;;;;;;19.97;63.28;99414.59;4972013;28;124740;-67
2021/10/03 06:34:54;;;;;;;5.95;2.80;;;;;;;19.97;63.42;99414.59;4971842;28;124561;-67
2021/10/03 06:37:21;;;;;;;5.25;3.35;;;;;;;19.97;63.33;99414.59;4973429;28;114281;-68
2021/10/03 06:39:48;;;;;;;5.07;3.08;;;;;;;19.97;63.58;99425.34;4969072;28;113892;-68
2021/10/03 06:42:15;;;;;;;4.93;3.03;;;;;;;19.98;63.33;99426.16;4970633;28;124741;-68
2021/10/03 06:44:43;;;;;;;5.18;3.10;;;;;;;19.98;63.28;99437.75;4970637;28;124086;-68
2021/10/03 06:47:11;;;;;;;4.65;3.00;;;;;;;19.97;63.45;99424.50;4960172;28;114729;-69
2021/10/03 06:49:40;;;;;;;4.40;3.20;;;;;;;19.94;63.34;99425.66;4956253;28;113802;-67
2021/10/03 06:52:09;;;;;;;5.10;3.13;;;;;;;19.94;63.49;99428.34;4972488;28;123964;-67
2021/10/03 06:54:37;;;;;;;6.75;3.38;;;;;;;19.94;63.43;99420.28;4949826;28;123334;-67
2021/10/03 06:57:04;;;;;;;5.35;2.80;;;;;;;19.93;63.43;99418.59;4962784;28;113596;-69
2021/10/03 06:59:32;;;;;;;5.57;3.22;;;;;;;19.93;63.38;99417.75;4970969;28;114009;-67
2021/10/03 07:02:17;;;;;;;6.07;3.25;;;;;;;19.92;63.54;99422.28;4972016;28;123971;-69
2021/10/03 07:04:44;;;;;;;5.95;3.45;;;;;;;19.90;63.34;99424.31;4959896;28;124327;-68
2021/10/03 07:07:12;;;;;;;5.85;3.13;;;;;;;19.89;63.41;99417.25;4973258;28;114552;-68
2021/10/03 07:09:39;;;;;;;5.70;3.10;;;;;;;19.89;63.65;99428.00;4969738;28;113971;-68
2021/10/03 07:12:06;;;;;;;5.20;2.80;;;;;;;19.91;63.58;99442.13;4971688;28;123924;-68
2021/10/03 07:14:34;;;;;;;4.85;3.30;;;;;;;19.90;63.59;99424.31;4971330;28;124192;-68
2021/10/03 07:17:01;;;;;;;3.88;2.88;;;;;;;19.90;63.57;99435.03;4972588;28;114827;-68
2021/10/03 07:19:28;;;;;;;6.85;3.17;;;;;;;19.89;63.56;99438.75;4971771;28;115026;-68
2021/10/03 07:21:56;;;;;;;6.03;2.90;;;;;;;19.91;63.61;99436.75;4970179;28;124370;-68
2021/10/03 07:24:24;;;;;;;3.95;2.90;;;;;;;19.92;63.59;99433.03;4969341;28;124100;-68
2021/10/03 07:26:51;;;;;;;5.15;3.38;;;;;;;19.92;63.79;99438.41;4972388;28;114394;-68
2021/10/03 07:29:18;;;;;;;6.85;3.60;;;;;;;19.93;63.64;99434.72;4954479;28;112885;-66
2021/10/03 07:31:46;;;;;;;5.50;3.00;;;;;;;19.92;63.63;99424.16;4969546;28;123909;-68
2021/10/03 07:34:13;;;;;;;5.82;3.40;;;;;;;19.93;63.82;99445.47;4970086;28;124655;-68
2021/10/03 07:36:42;;;;;;;7.15;3.55;;;;;;;19.94;63.77;99439.09;4972187;28;114451;-68
2021/10/03 07:39:09;;;;;;;6.07;3.50;;;;;;;19.95;63.83;99446.16;4970442;28;114588;-67
2021/10/03 07:41:36;;;;;;;6.32;3.78;;;;;;;19.95;63.87;99438.09;4971042;28;124460;-69
2021/10/03 07:44:04;;;;;;;5.05;3.47;;;;;;;19.94;63.83;99431.03;4969053;28;123941;-69
2021/10/03 07:46:31;;;;;;;6.60;3.50;;;;;;;19.94;63.91;99447.16;4972598;28;114153;-69
2021/10/03 07:48:58;;;;;;;6.30;3.67;;;;;;;19.94;63.83;99441.78;4955459;28;114333;-68
2021/10/03 07:51:25;;;;;;;4.72;3.20;;;;;;;19.94;63.78;99420.28;4969620;28;124253;-69
2021/10/03 07:53:53;;;;;;;7.80;3.85;;;;;;;19.93;63.80;99423.97;4969708;28;124287;-69
2021/10/03 07:56:20;;;;;;;6.35;3.55;;;;;;;19.96;63.92;99437.06;4971316;28;114603;-69
2021/10/03 07:58:47;;;;;;;4.80;3.67;;;;;;;19.96;63.90;99439.75;4972103;28;114465;-69
2021/10/03 08:01:16;;;;;;;4.80;3.28;;;;;;;19.97;63.94;99436.09;4971928;28;124336;-69
2021/10/03 08:03:43;;;;;;;6.38;3.58;;;;;;;19.98;64.01;99437.75;4969650;28;124331;-69
2021/10/03 08:06:11;;;;;;;6.45;3.60;;;;;;;20.00;64.01;99445.66;4970452;28;115656;-69
2021/10/03 08:08:38;;;;;;;5.63;3.80;;;;;;;20.00;64.07;99451.88;4968952;28;114715;-69
2021/10/03 08:11:05;;;;;;;6.80;3.60;;;;;;;20.01;64.17;99437.44;4971378;28;124252;-69
2021/10/03 08:13:32;;;;;;;6.65;3.60;;;;;;;20.02;64.26;99443.63;4971859;28;123705;-69
2021/10/03 08:16:00;;;;;;;7.70;4.05;;;;;;;20.02;64.24;99449.88;4952597;28;114418;-69
2021/10/03 08:18:27;;;;;;;5.97;3.72;;;;;;;20.03;64.11;99456.91;4969689;28;113760;-68
2021/10/03 08:20:54;;;;;;;7.85;4.25;;;;;;;20.03;64.14;99456.91;4970920;28;124421;-69
2021/10/03 08:23:21;;;;;;;7.07;3.65;;;;;;;20.05;64.35;99466.69;4971300;28;124061;-69
2021/10/03 08:25:49;;;;;;;6.32;3.90;;;;;;;20.06;64.27;99453.06;4954198;28;113717;-67
2021/10/03 08:28:16;;;;;;;5.60;3.83;;;;;;;20.07;64.27;99448.53;4970819;28;114466;-67
2021/10/03 08:30:44;;;;;;;4.97;3.15;;;;;;;20.05;63.93;99475.56;4953589;28;123133;-67
2021/10/03 08:33:11;;;;;;;3.47;2.40;;;;;;;20.00;63.80;99484.13;4965393;28;124074;-68
2021/10/03 08:35:39;;;;;;;3.72;2.20;;;;;;;19.91;63.55;99485.13;4971036;28;114532;-68
2021/10/03 08:38:06;;;;;;;3.28;1.98;;;;;;;19.81;63.42;99484.38;4954062;28;112959;-68
2021/10/03 08:40:33;;;;;;;2.65;1.60;;;;;;;19.74;63.04;99499.47;4952688;28;123650;-68
2021/10/03 08:43:04;;;;;;;1.40;1.10;;;;;;;19.62;62.95;99497.03;4969616;28;124270;-68
2021/10/03 08:45:31;;;;;;;1.80;1.00;;;;;;;19.47;62.85;99509.38;4971779;28;114522;-67
2021/10/03 08:47:59;;;;;;;0.95;0.70;;;;;;;19.36;62.81;99498.91;4951824;28;113378;-68
2021/10/03 08:50:26;;;;;;;1.27;0.80;;;;;;;19.22;62.79;99501.19;4965818;28;123892;-67
2021/10/03 08:52:53;;;;;;;1.13;0.80;;;;;;;19.12;62.84;99500.47;4974457;28;123820;-68
2021/10/03 08:55:20;;;;;;;1.55;1.08;;;;;;;19.02;63.11;99499.69;4961404;28;115615;-68
2021/10/03 08:57:47;;;;;;;1.95;1.10;;;;;;;18.96;63.13;99511.06;4967042;28;114964;-68
2021/10/03 09:00:17;;;;;;;1.30;0.93;;;;;;;18.90;63.31;99514.38;4962220;28;124085;-67
2021/10/03 09:03:21;;;;;;;1.40;0.90;;;;;;;18.82;63.22;99521.34;4956494;28;123264;-67
2021/10/03 09:05:51;;;;;;;1.75;0.90;;;;;;;18.72;62.98;99520.56;4961129;28;114045;-68
2021/10/03 09:08:40;;;;;;;1.15;0.60;;;;;;;18.62;62.83;99514.44;4972224;28;114212;-69
2021/10/03 09:11:09;;;;;;;1.35;0.50;;;;;;;18.50;62.77;99524.56;4969200;28;124314;-69
2021/10/03 09:13:37;;;;;;;1.90;0.60;;;;;;;18.38;62.66;99523.09;4962160;28;123715;-69
2021/10/03 09:16:10;;;;;;;1.10;0.60;;;;;;;18.26;62.88;99531.34;4964280;28;114317;-68
2021/10/03 09:18:51;;;;;;;1.42;0.60;;;;;;;18.15;62.99;99536.06;4967646;28;114282;-69
2021/10/03 09:21:31;;;;;;;1.33;0.60;;;;;;;18.05;62.97;99522.75;4967143;28;123949;-69
2021/10/03 09:24:04;;;;;;;1.52;0.70;;;;;;;17.97;62.92;99536.88;4957015;28;124059;-69
2021/10/03 09:26:33;;;;;;;1.35;0.70;;;;;;;17.91;63.09;99537.47;4961739;28;114310;-69
2021/10/03 09:29:19;;;;;;;0.95;0.60;;;;;;;17.83;63.18;99550.72;4955201;28;114476;-69
2021/10/03 09:32:12;;;;;;;1.48;0.60;;;;;;;17.77;63.19;99551.31;4954846;28;123515;-70
2021/10/03 09:34:46;;;;;;;1.63;0.70;;;;;;;17.73;63.44;99555.28;4955156;28;124601;-70
2021/10/03 09:37:26;;;;;;;2.22;0.77;;;;;;;17.66;63.35;99566.56;4967533;28;113878;-70
2021/10/03 09:40:12;;;;;;;2.63;0.77;;;;;;;17.63;63.35;99572.22;4971567;28;114132;-71
2021/10/03 09:42:49;;;;;;;1.38;0.80;;;;;;;17.59;63.36;99581.53;4961755;28;124081;-70
2021/10/03 09:45:21;;;;;;;0.88;0.60;;;;;;;17.57;63.34;99588.03;4967188;28;123720;-71
2021/10/03 09:48:04;;;;;;;1.88;0.70;;;;;;;17.52;63.38;99591.97;4967156;28;115351;-70
2021/10/03 09:50:34;;;;;;;1.50;0.70;;;;;;;17.50;63.65;99587.78;4962421;28;115224;-71
2021/10/03 09:53:01;;;;;;;1.65;0.70;;;;;;;17.46;63.40;99589.03;4960974;28;123797;-71
2021/10/03 09:55:29;;;;;;;1.08;0.60;;;;;;;17.45;63.58;99590.03;4966336;28;124269;-71
2021/10/03 09:57:57;;;;;;;2.47;0.80;;;;;;;17.45;63.75;99592.72;4959914;28;114962;-70
2021/10/03 10:00:27;;;;;;;1.67;0.70;;;;;;;17.43;63.79;99581.31;4945640;28;113373;-71
2021/10/03 10:02:54;;;;;;;2.03;0.70;;;;;;;17.43;63.80;99576.78;4963420;28;123928;-71
2021/10/03 10:05:26;;;;;;;1.73;0.88;;;;;;;17.44;64.03;99582.97;4957734;28;123746;-71
2021/10/03 10:07:56;;;;;;;1.60;0.90;;;;;;;17.45;63.79;99584.69;4969001;28;114032;-72
2021/10/03 10:10:24;;;;;;;1.73;0.70;;;;;;;17.46;63.86;99586.34;4963880;28;113717;-71
2021/10/03 10:13:01;;;;;;;0.60;0.60;;;;;;;17.47;63.83;99593.41;4968478;28;124124;-71
2021/10/03 10:15:29;;;;;;;1.15;0.60;;;;;;;17.48;63.87;99600.47;4961413;28;124538;-71
2021/10/03 10:17:56;;;;;;;0.70;0.60;;;;;;;17.50;63.97;99585.09;4943572;28;113212;-71
2021/10/03 10:20:27;;;;;;;1.20;0.77;;;;;;;17.51;63.79;99584.94;4961747;28;114103;-71
2021/10/03 10:22:56;;;;;;;1.20;0.80;;;;;;;17.51;64.01;99592.13;4952755;28;124131;-72
2021/10/03 10:25:56;;;;;;;1.60;1.08;;;;;;;17.52;64.00;99593.81;4971231;28;124575;-73
2021/10/03 10:28:27;;;;;;;1.40;0.98;;;;;;;17.56;64.08;99592.53;4920559;28;114317;-73
2021/10/03 10:31:02;;;;;;;1.30;0.80;;;;;;;17.57;63.98;99607.59;4959142;28;113296;-73
2021/10/03 10:33:50;;;;;;;1.55;0.77;;;;;;;17.58;64.22;99601.28;4970750;28;123979;-72
2021/10/03 10:36:25;;;;;;;0.82;0.73;;;;;;;17.63;64.17;99596.34;4955453;28;123208;-72
2021/10/03 10:39:07;;;;;;;1.50;1.00;;;;;;;17.68;64.12;99610.09;4971299;28;115133;-72
2021/10/03 10:41:42;;;;;;;2.83;1.75;;;;;;;17.74;64.16;99605.16;4973552;28;114725;-72
2021/10/03 10:44:28;;;;;;;4.78;2.08;;;;;;;17.77;64.35;99605.72;4966981;28;124195;-72
2021/10/03 10:46:55;;;;;;;3.03;1.90;;;;;;;17.85;64.20;99618.41;4965264;28;124656;-73
2021/10/03 10:49:28;;;;;;;2.63;1.50;;;;;;;17.87;64.43;99613.75;4955827;28;114430;-73
2021/10/03 10:52:17;;;;;;;1.77;1.30;;;;;;;17.93;64.09;99621.19;4962614;28;114058;-73
2021/10/03 10:55:00;;;;;;;2.60;1.10;;;;;;;17.99;64.38;99620.63;4967235;28;123406;-72
2021/10/03 10:57:28;;;;;;;1.45;1.00;;;;;;;18.04;64.14;99612.97;4956665;28;124029;-72
2021/10/03 11:00:14;;;;;;;1.10;0.90;;;;;;;18.10;64.10;99622.25;4972411;28;114877;-73
2021/10/03 11:03:00;;;;;;;2.40;1.60;;;;;;;18.14;64.08;99615.63;4972257;28;114134;-72
2021/10/03 11:05:48;;;;;;;2.03;1.25;;;;;;;18.16;63.84;99626.19;4970474;28;124738;-72
2021/10/03 11:08:16;;;;;;;1.50;1.30;;;;;;;18.19;63.94;99623.22;4968623;28;123776;-71
2021/10/03 11:10:59;;;;;;;1.80;1.10;;;;;;;18.21;63.78;99621.22;4973030;28;114127;-72
2021/10/03 11:13:43;;;;;;;2.05;1.25;;;;;;;18.24;63.68;99623.63;4944508;28;112524;-72
2021/10/03 11:16:29;;;;;;;2.17;1.40;;;;;;;18.27;63.93;99634.03;4954027;28;122412;-72
2021/10/03 11:19:00;;;;;;;2.38;1.38;;;;;;;18.32;63.82;99630.91;4968943;28;124690;-73
2021/10/03 11:21:30;;;;;;;1.80;1.30;;;;;;;18.34;63.74;99624.41;4967982;28;114563;-72
2021/10/03 11:23:59;;;;;;;1.80;1.25;;;;;;;18.38;63.65;99624.94;4949724;28;114372;-73
2021/10/03 11:26:27;;;;;;;2.38;1.80;;;;;;;18.39;63.71;99624.81;4969018;28;124415;-72
2021/10/03 11:28:59;;;;;;;2.70;2.05;;;;;;;18.41;63.82;99625.50;4971694;28;123891;-72
2021/10/03 11:31:35;;;;;;;4.07;2.20;;;;;;;18.43;63.43;99612.78;4972246;28;115338;-72
2021/10/03 11:34:03;;;;;;;3.47;1.88;;;;;;;18.45;63.61;99610.78;4970100;28;115378;-72